createdAt,value
2022-09-18T00:01:22.894Z,96.00
2022-09-18T00:03:49.981Z,95.80
2022-09-18T00:06:19.785Z,95.50
2022-09-18T00:08:49.692Z,95.30
2022-09-18T00:11:16.734Z,95.30
2022-09-18T00:13:43.711Z,95.70
2022-09-18T00:16:13.311Z,96.00
2022-09-18T00:18:41.265Z,95.20
2022-09-18T00:21:13.582Z,96.10
2022-09-18T00:23:41.504Z,95.60
2022-09-18T00:26:11.101Z,95.70
2022-09-18T00:28:38.507Z,95.30
2022-09-18T00:31:10.184Z,96.20
2022-09-18T00:33:39.304Z,95.50
2022-09-18T00:36:09.219Z,96.00
2022-09-18T00:38:36.187Z,96.40
2022-09-18T00:41:06.438Z,96.50
2022-09-18T00:43:35.664Z,96.30
2022-09-18T00:46:07.835Z,96.20
2022-09-18T00:48:59.869Z,96.00
2022-09-18T00:51:27.189Z,96.30
2022-09-18T00:54:17.933Z,95.70
2022-09-18T00:56:46.208Z,96.00
2022-09-18T00:59:17.564Z,96.10
2022-09-18T01:01:44.559Z,96.00
2022-09-18T01:04:12.891Z,96.20
2022-09-18T01:06:47.596Z,96.10
2022-09-18T01:09:41.895Z,95.60
2022-09-18T01:12:21.668Z,95.70
2022-09-18T01:15:10.037Z,95.90
2022-09-18T01:17:55.200Z,96.70
2022-09-18T01:21:00.545Z,96.60
2022-09-18T01:24:02.914Z,96.30
2022-09-18T01:26:51.669Z,96.50
2022-09-18T01:29:44.380Z,96.30
2022-09-18T01:32:18.761Z,96.80
2022-09-18T01:35:36.867Z,96.60
2022-09-18T01:38:10.011Z,96.10
2022-09-18T01:41:06.224Z,96.80
2022-09-18T01:43:34.913Z,95.70
2022-09-18T01:46:08.231Z,96.00
2022-09-18T01:49:06.661Z,95.40
2022-09-18T01:52:09.150Z,95.70
2022-09-18T01:54:42.291Z,95.30
2022-09-18T01:57:34.584Z,95.20
2022-09-18T02:00:07.621Z,96.10
2022-09-18T02:03:02.094Z,95.40
2022-09-18T02:05:36.580Z,95.30
2022-09-18T02:08:17.064Z,95.10
2022-09-18T02:10:51.518Z,95.70
2022-09-18T02:13:26.480Z,95.60
2022-09-18T02:15:59.891Z,95.20
2022-09-18T02:18:34.599Z,95.60
2022-09-18T02:21:09.911Z,95.00
2022-09-18T02:23:40.575Z,95.20
2022-09-18T02:26:14.113Z,95.10
2022-09-18T02:28:44.154Z,95.50
2022-09-18T02:31:13.084Z,95.10
2022-09-18T02:33:40.298Z,94.90
2022-09-18T02:36:29.361Z,94.80
2022-09-18T02:39:05.249Z,94.90
2022-09-18T02:42:13.248Z,94.90
2022-09-18T02:44:52.324Z,95.20
2022-09-18T02:47:47.061Z,95.60
2022-09-18T02:50:36.830Z,95.40
2022-09-18T02:53:27.630Z,96.00
2022-09-18T02:56:22.155Z,95.60
2022-09-18T02:59:08.954Z,96.80
2022-09-18T03:01:42.737Z,96.20
2022-09-18T03:04:15.225Z,96.90
2022-09-18T03:06:59.256Z,96.10
2022-09-18T03:09:26.854Z,95.70
2022-09-18T03:11:54.522Z,95.90
2022-09-18T03:14:45.816Z,95.50
2022-09-18T03:17:14.578Z,96.00
2022-09-18T03:19:44.812Z,95.90
2022-09-18T03:22:13.641Z,96.50
2022-09-18T03:24:45.172Z,97.00
2022-09-18T03:27:18.284Z,96.10
2022-09-18T03:29:46.090Z,97.20
2022-09-18T03:32:13.814Z,96.80
2022-09-18T03:34:45.915Z,96.30
2022-09-18T03:37:13.548Z,96.30
2022-09-18T03:39:40.567Z,96.50
2022-09-18T03:42:11.824Z,96.30
2022-09-18T03:44:38.819Z,96.60
2022-09-18T03:47:16.707Z,96.90
2022-09-18T03:49:43.721Z,96.80
2022-09-18T03:52:11.120Z,97.10
2022-09-18T03:54:45.750Z,96.80
2022-09-18T03:57:31.266Z,96.60
2022-09-18T04:00:17.274Z,96.40
2022-09-18T04:02:46.544Z,96.80
2022-09-18T04:05:50.057Z,96.40
2022-09-18T04:08:20.041Z,96.20
2022-09-18T04:11:10.074Z,96.50
2022-09-18T04:13:37.974Z,96.60
2022-09-18T04:16:08.545Z,96.90
2022-09-18T04:18:35.710Z,97.10
2022-09-18T04:21:04.858Z,96.70
2022-09-18T04:23:31.770Z,96.50
2022-09-18T04:25:58.846Z,96.50
2022-09-18T04:28:30.584Z,96.70
2022-09-18T04:30:58.411Z,96.40
2022-09-18T04:33:25.368Z,96.30
2022-09-18T04:35:52.983Z,96.70
2022-09-18T04:38:27.451Z,96.40
2022-09-18T04:41:00.334Z,96.60
2022-09-18T04:43:28.638Z,96.50
2022-09-18T04:45:55.855Z,96.20
2022-09-18T04:48:23.458Z,97.20
2022-09-18T04:50:51.239Z,96.60
2022-09-18T04:53:19.198Z,96.40
2022-09-18T04:55:47.963Z,96.70
2022-09-18T04:58:17.574Z,97.30
2022-09-18T05:00:49.599Z,97.10
2022-09-18T05:03:18.167Z,96.50
2022-09-18T05:05:46.063Z,96.70
2022-09-18T05:08:13.410Z,96.20
2022-09-18T05:10:41.851Z,96.20
2022-09-18T05:13:09.094Z,96.40
2022-09-18T05:15:42.207Z,96.40
2022-09-18T05:18:12.165Z,96.70
2022-09-18T05:20:39.779Z,97.10
2022-09-18T05:23:08.740Z,96.40
2022-09-18T05:25:36.926Z,96.30
2022-09-18T05:28:05.210Z,96.20
2022-09-18T05:30:41.918Z,96.40
2022-09-18T05:33:11.486Z,96.20
2022-09-18T05:35:40.495Z,96.10
2022-09-18T05:38:07.916Z,97.00
2022-09-18T05:40:37.403Z,97.20
2022-09-18T05:43:05.764Z,96.80
2022-09-18T05:45:34.501Z,96.40
2022-09-18T05:48:07.115Z,97.20
2022-09-18T05:50:36.583Z,97.20
2022-09-18T05:53:16.622Z,98.40
2022-09-18T05:56:05.630Z,98.00
2022-09-18T05:58:32.838Z,98.00
2022-09-18T06:01:02.261Z,98.60
2022-09-18T06:03:44.337Z,98.10
2022-09-18T06:06:13.317Z,98.30
2022-09-18T06:08:40.273Z,98.30
2022-09-18T06:11:07.462Z,99.40
2022-09-18T06:13:34.548Z,99.80
2022-09-18T06:16:01.648Z,99.50
2022-09-18T06:18:51.152Z,99.60
2022-09-18T06:21:18.204Z,99.40
2022-09-18T06:23:45.168Z,99.00
2022-09-18T06:26:29.321Z,99.10
2022-09-18T06:28:56.378Z,99.20
2022-09-18T06:31:23.370Z,99.50
2022-09-18T06:34:10.691Z,99.80
2022-09-18T06:36:39.596Z,99.50
2022-09-18T06:39:25.447Z,99.80
2022-09-18T06:41:59.604Z,99.90
2022-09-18T06:44:46.287Z,99.90
2022-09-18T06:47:15.638Z,99.40
2022-09-18T06:49:45.669Z,99.10
2022-09-18T06:52:12.648Z,99.90
2022-09-18T06:54:40.474Z,99.90
2022-09-18T06:57:08.323Z,99.90
2022-09-18T06:59:35.290Z,99.90
2022-09-18T07:02:02.324Z,99.90
2022-09-18T07:04:49.571Z,99.90
2022-09-18T07:07:18.030Z,99.90
2022-09-18T07:09:47.988Z,99.90
2022-09-18T07:12:23.250Z,99.90
2022-09-18T07:14:53.926Z,99.90
2022-09-18T07:17:26.241Z,99.90
2022-09-18T07:19:55.111Z,99.90
2022-09-18T07:22:28.059Z,99.90
2022-09-18T07:24:58.528Z,99.90
2022-09-18T07:27:25.553Z,99.90
2022-09-18T07:29:54.045Z,99.90
2022-09-18T07:32:22.618Z,99.90
2022-09-18T07:34:50.036Z,99.90
2022-09-18T07:37:26.458Z,99.90
2022-09-18T07:40:12.536Z,99.90
2022-09-18T07:43:12.393Z,99.90
2022-09-18T07:45:48.079Z,99.90
2022-09-18T07:48:16.365Z,99.90
2022-09-18T07:50:49.764Z,99.90
2022-09-18T07:53:18.635Z,99.90
2022-09-18T07:55:48.765Z,99.90
2022-09-18T07:58:16.032Z,99.90
2022-09-18T08:01:04.731Z,99.90
2022-09-18T08:03:36.874Z,99.90
2022-09-18T08:06:10.261Z,99.90
2022-09-18T08:08:40.492Z,99.90
2022-09-18T08:11:23.741Z,99.90
2022-09-18T08:13:56.246Z,99.90
2022-09-18T08:16:52.495Z,99.90
2022-09-18T08:19:48.959Z,99.90
2022-09-18T08:22:39.505Z,99.90
2022-09-18T08:25:07.991Z,99.90
2022-09-18T08:27:38.883Z,99.90
2022-09-18T08:30:07.827Z,99.90
2022-09-18T08:32:35.487Z,99.90
2022-09-18T08:35:05.248Z,99.90
2022-09-18T08:37:33.892Z,99.90
2022-09-18T08:40:22.828Z,99.90
2022-09-18T08:43:27.705Z,99.90
2022-09-18T08:46:08.974Z,99.90
2022-09-18T08:48:53.173Z,99.90
2022-09-18T08:51:56.616Z,99.90
2022-09-18T08:54:36.750Z,99.90
2022-09-18T08:57:35.962Z,99.90
2022-09-18T09:00:22.094Z,99.90
2022-09-18T09:03:27.131Z,99.90
2022-09-18T09:06:01.489Z,99.90
2022-09-18T09:08:41.310Z,99.90
2022-09-18T09:11:14.671Z,99.90
2022-09-18T09:14:01.629Z,99.90
2022-09-18T09:16:44.400Z,99.90
2022-09-18T09:19:34.022Z,99.90
2022-09-18T09:22:19.857Z,99.90
2022-09-18T09:25:21.503Z,99.90
2022-09-18T09:28:59.245Z,99.90
2022-09-18T09:31:53.550Z,99.90
2022-09-18T09:34:34.267Z,99.90
2022-09-18T09:37:15.925Z,99.90
2022-09-18T09:39:57.741Z,99.90
2022-09-18T09:42:36.746Z,99.90
2022-09-18T09:45:33.382Z,99.90
2022-09-18T09:48:15.497Z,99.80
2022-09-18T09:51:08.658Z,99.40
2022-09-18T09:53:36.515Z,99.30
2022-09-18T09:56:07.102Z,99.70
2022-09-18T09:58:59.330Z,98.10
2022-09-18T10:01:36.031Z,97.80
2022-09-18T10:04:13.150Z,98.40
2022-09-18T10:07:15.038Z,98.20
2022-09-18T10:09:54.452Z,97.60
2022-09-18T10:12:48.993Z,97.10
2022-09-18T10:15:43.992Z,97.30
2022-09-18T10:18:25.374Z,97.80
2022-09-18T10:20:58.463Z,97.60
2022-09-18T10:23:34.142Z,97.50
2022-09-18T10:26:03.268Z,97.90
2022-09-18T10:28:31.393Z,97.80
2022-09-18T10:31:10.816Z,97.80
2022-09-18T10:33:45.251Z,97.80
2022-09-18T10:36:35.421Z,97.80
2022-09-18T10:39:37.446Z,98.20
2022-09-18T10:42:17.687Z,97.90
2022-09-18T10:44:55.816Z,97.90
2022-09-18T10:47:38.087Z,97.80
2022-09-18T10:50:13.339Z,97.20
2022-09-18T10:52:54.222Z,97.40
2022-09-18T10:55:34.444Z,97.30
2022-09-18T10:58:15.763Z,97.10
2022-09-18T11:00:56.405Z,97.00
2022-09-18T11:03:41.982Z,97.10
2022-09-18T11:06:23.897Z,97.00
2022-09-18T11:08:56.382Z,96.60
2022-09-18T11:11:31.001Z,97.10
2022-09-18T11:14:06.263Z,97.20
2022-09-18T11:16:50.640Z,97.00
2022-09-18T11:19:38.968Z,96.90
2022-09-18T11:22:42.745Z,97.00
2022-09-18T11:25:21.683Z,97.10
2022-09-18T11:27:57.028Z,97.00
2022-09-18T11:30:33.507Z,97.50
2022-09-18T11:33:22.080Z,96.70
2022-09-18T11:35:56.777Z,96.10
2022-09-18T11:38:24.215Z,96.30
2022-09-18T11:40:53.903Z,96.50
2022-09-18T11:43:34.390Z,97.00
2022-09-18T11:46:01.887Z,97.10
2022-09-18T11:48:46.518Z,96.80
2022-09-18T11:51:18.866Z,96.90
2022-09-18T11:53:52.042Z,96.80
2022-09-18T11:56:44.917Z,97.10
2022-09-18T11:59:35.396Z,96.80
2022-09-18T12:02:11.158Z,97.20
2022-09-18T12:05:02.661Z,97.00
2022-09-18T12:07:37.115Z,96.60
2022-09-18T12:10:23.605Z,96.90
2022-09-18T12:13:11.509Z,96.20
2022-09-18T12:15:41.386Z,96.20
2022-09-18T12:18:28.350Z,96.20
2022-09-18T12:21:08.493Z,96.20
2022-09-18T12:23:35.524Z,96.00
2022-09-18T12:26:27.534Z,95.80
2022-09-18T12:29:24.365Z,95.80
2022-09-18T12:32:06.681Z,95.80
2022-09-18T12:34:42.740Z,95.40
2022-09-18T12:37:12.612Z,95.20
2022-09-18T12:39:43.065Z,95.10
2022-09-18T12:42:09.975Z,94.80
2022-09-18T12:44:42.763Z,95.40
2022-09-18T12:47:28.060Z,95.60
2022-09-18T12:50:33.080Z,95.20
2022-09-18T12:53:10.233Z,95.20
2022-09-18T12:55:49.332Z,95.90
2022-09-18T12:58:35.369Z,95.50
2022-09-18T13:01:17.720Z,95.40
2022-09-18T13:03:46.955Z,95.60
2022-09-18T13:06:20.122Z,96.00
2022-09-18T13:08:58.672Z,95.00
2022-09-18T13:11:34.540Z,94.50
2022-09-18T13:14:11.052Z,94.90
2022-09-18T13:16:56.175Z,94.10
2022-09-18T13:19:28.285Z,94.00
2022-09-18T13:21:58.762Z,94.40
2022-09-18T13:24:32.997Z,94.50
2022-09-18T13:27:04.186Z,94.50
2022-09-18T13:29:56.638Z,94.50
2022-09-18T13:32:37.184Z,94.40
2022-09-18T13:35:13.747Z,94.70
2022-09-18T13:37:42.852Z,94.50
2022-09-18T13:40:33.587Z,94.90
2022-09-18T13:43:20.137Z,95.00
2022-09-18T13:45:47.833Z,94.80
2022-09-18T13:48:23.086Z,95.00
2022-09-18T13:50:59.646Z,94.70
2022-09-18T13:53:43.876Z,94.60
2022-09-18T13:56:15.838Z,94.70
2022-09-18T13:58:57.390Z,94.30
2022-09-18T14:01:43.127Z,93.90
2022-09-18T14:04:41.041Z,94.10
2022-09-18T14:07:17.700Z,94.00
2022-09-18T14:09:52.784Z,94.20
2022-09-18T14:12:20.894Z,94.50
2022-09-18T14:15:03.076Z,94.50
2022-09-18T14:17:32.464Z,94.70
2022-09-18T14:20:08.761Z,94.80
2022-09-18T14:22:38.324Z,94.40
2022-09-18T14:25:10.018Z,94.10
2022-09-18T14:27:53.566Z,94.40
2022-09-18T14:30:29.594Z,94.60
2022-09-18T14:33:03.396Z,94.70
2022-09-18T14:35:38.636Z,94.90
2022-09-18T14:38:26.532Z,95.10
2022-09-18T14:41:01.569Z,94.90
2022-09-18T14:43:28.817Z,94.90
2022-09-18T14:45:56.002Z,95.20
2022-09-18T14:48:27.696Z,95.20
2022-09-18T14:51:18.716Z,95.50
2022-09-18T14:53:50.090Z,95.80
2022-09-18T14:56:30.546Z,95.70
2022-09-18T14:59:01.224Z,95.90
2022-09-18T15:01:31.975Z,95.70
2022-09-18T15:04:02.415Z,96.00
2022-09-18T15:06:37.991Z,96.10
2022-09-18T15:09:11.084Z,95.90
2022-09-18T15:12:01.247Z,96.20
2022-09-18T15:14:39.898Z,96.10
2022-09-18T15:17:21.975Z,96.10
2022-09-18T15:19:59.108Z,96.20
2022-09-18T15:22:27.571Z,96.20
2022-09-18T15:24:55.254Z,96.20
2022-09-18T15:27:23.463Z,96.30
2022-09-18T15:30:02.053Z,96.30
2022-09-18T15:32:38.293Z,96.50
2022-09-18T15:35:08.898Z,96.50
2022-09-18T15:37:38.354Z,96.50
2022-09-18T15:40:19.595Z,96.30
2022-09-18T15:43:01.856Z,96.40
2022-09-18T15:45:31.980Z,96.50
2022-09-18T15:48:01.454Z,96.20
2022-09-18T15:50:31.743Z,96.60
2022-09-18T15:53:24.256Z,96.50
2022-09-18T15:56:24.165Z,96.60
2022-09-18T15:58:55.566Z,96.50
2022-09-18T16:01:35.271Z,96.00
2022-09-18T16:04:17.113Z,96.10
2022-09-18T16:06:53.254Z,96.00
2022-09-18T16:09:33.585Z,96.00
2022-09-18T16:12:01.176Z,96.00
2022-09-18T16:14:43.215Z,95.70
2022-09-18T16:17:28.675Z,96.00
2022-09-18T16:20:01.809Z,96.10
2022-09-18T16:22:31.164Z,96.10
2022-09-18T16:24:58.525Z,96.30
2022-09-18T16:27:26.794Z,96.40
2022-09-18T16:29:53.979Z,96.40
2022-09-18T16:32:21.849Z,96.60
2022-09-18T16:34:48.869Z,96.60
2022-09-18T16:37:17.479Z,96.70
2022-09-18T16:39:44.613Z,96.70
2022-09-18T16:42:19.015Z,96.70
2022-09-18T16:44:46.513Z,96.80
2022-09-18T16:47:15.366Z,96.90
2022-09-18T16:49:46.202Z,96.90
2022-09-18T16:52:14.179Z,97.00
2022-09-18T16:54:41.449Z,97.00
2022-09-18T16:57:18.382Z,97.00
2022-09-18T16:59:45.966Z,97.10
2022-09-18T17:02:17.029Z,97.20
2022-09-18T17:04:44.394Z,97.20
2022-09-18T17:07:11.394Z,97.20
2022-09-18T17:09:38.601Z,97.30
2022-09-18T17:12:05.782Z,97.30
2022-09-18T17:14:34.603Z,97.20
2022-09-18T17:17:01.719Z,97.20
2022-09-18T17:19:28.828Z,97.20
2022-09-18T17:21:55.878Z,97.20
2022-09-18T17:24:26.164Z,97.40
2022-09-18T17:26:53.989Z,97.80
2022-09-18T17:29:21.286Z,97.80
2022-09-18T17:31:48.290Z,98.10
2022-09-18T17:34:16.642Z,97.80
2022-09-18T17:36:43.596Z,97.90
2022-09-18T17:39:10.663Z,98.10
2022-09-18T17:41:38.362Z,98.30
2022-09-18T17:44:05.829Z,98.00
2022-09-18T17:46:32.787Z,98.30
2022-09-18T17:49:00.668Z,98.30
2022-09-18T17:51:29.275Z,98.30
2022-09-18T17:54:05.192Z,98.30
2022-09-18T17:56:33.788Z,98.20
2022-09-18T17:59:02.276Z,98.10
2022-09-18T18:01:30.076Z,98.30
2022-09-18T18:03:57.443Z,98.30
2022-09-18T18:06:25.106Z,98.20
2022-09-18T18:08:52.790Z,98.30
2022-09-18T18:11:22.577Z,98.50
2022-09-18T18:13:50.648Z,98.50
2022-09-18T18:16:23.646Z,98.80
2022-09-18T18:18:54.883Z,98.50
2022-09-18T18:21:22.925Z,98.70
2022-09-18T18:23:55.960Z,98.70
2022-09-18T18:26:24.182Z,99.40
2022-09-18T18:28:51.179Z,98.80
2022-09-18T18:31:18.247Z,99.60
2022-09-18T18:33:45.297Z,99.60
2022-09-18T18:36:19.581Z,98.90
2022-09-18T18:38:48.633Z,99.60
2022-09-18T18:41:17.060Z,98.90
2022-09-18T18:43:44.771Z,98.90
2022-09-18T18:46:14.034Z,99.40
2022-09-18T18:48:42.975Z,99.00
2022-09-18T18:51:14.976Z,99.10
2022-09-18T18:53:46.041Z,99.20
2022-09-18T18:56:15.639Z,98.80
2022-09-18T18:58:46.647Z,99.30
2022-09-18T19:01:16.634Z,99.20
2022-09-18T19:03:50.788Z,98.90
2022-09-18T19:06:18.097Z,98.80
2022-09-18T19:08:48.519Z,98.70
2022-09-18T19:11:18.796Z,98.90
2022-09-18T19:13:56.707Z,99.50
2022-09-18T19:16:25.504Z,99.00
2022-09-18T19:18:59.672Z,99.00
2022-09-18T19:21:28.478Z,99.10
2022-09-18T19:23:59.282Z,99.40
2022-09-18T19:26:28.192Z,99.50
2022-09-18T19:29:00.404Z,99.20
2022-09-18T19:31:29.069Z,99.30
2022-09-18T19:33:58.020Z,99.20
2022-09-18T19:36:28.006Z,99.50
2022-09-18T19:38:57.651Z,99.80
2022-09-18T19:41:59.042Z,99.30
2022-09-18T19:44:31.477Z,99.30
2022-09-18T19:47:05.296Z,99.20
2022-09-18T19:49:37.773Z,99.20
2022-09-18T19:52:15.200Z,99.10
2022-09-18T19:54:42.491Z,99.00
2022-09-18T19:57:09.572Z,98.90
2022-09-18T19:59:36.654Z,98.90
2022-09-18T20:02:03.867Z,99.00
2022-09-18T20:04:30.936Z,98.90
2022-09-18T20:06:58.247Z,98.90
2022-09-18T20:09:28.968Z,98.80
2022-09-18T20:11:56.877Z,98.80
2022-09-18T20:14:24.207Z,98.80
2022-09-18T20:16:51.306Z,98.80
2022-09-18T20:19:18.162Z,98.70
2022-09-18T20:21:45.236Z,98.80
2022-09-18T20:24:12.554Z,98.70
2022-09-18T20:26:39.536Z,98.60
2022-09-18T20:29:06.485Z,98.60
2022-09-18T20:31:33.466Z,98.70
2022-09-18T20:34:01.044Z,98.60
2022-09-18T20:36:29.358Z,98.60
2022-09-18T20:39:00.957Z,98.60
2022-09-18T20:41:30.077Z,98.50
2022-09-18T20:44:25.298Z,98.50
2022-09-18T20:46:56.750Z,98.50
2022-09-18T20:49:24.767Z,98.40
2022-09-18T20:51:52.130Z,98.80
2022-09-18T20:54:22.860Z,98.50
2022-09-18T20:56:49.960Z,98.50
2022-09-18T20:59:18.657Z,98.50
2022-09-18T21:01:46.948Z,98.40
2022-09-18T21:04:20.617Z,98.40
2022-09-18T21:06:57.313Z,98.40
2022-09-18T21:09:26.764Z,98.40
2022-09-18T21:11:56.327Z,98.40
2022-09-18T21:14:24.876Z,98.40
2022-09-18T21:16:51.989Z,98.40
2022-09-18T21:19:19.710Z,98.30
2022-09-18T21:21:48.008Z,98.30
2022-09-18T21:24:16.098Z,98.20
2022-09-18T21:26:52.009Z,98.20
2022-09-18T21:29:25.343Z,98.20
2022-09-18T21:31:58.165Z,98.30
2022-09-18T21:34:31.379Z,98.30
2022-09-18T21:37:03.856Z,98.30
2022-09-18T21:39:31.980Z,98.30
2022-09-18T21:42:00.576Z,98.40
2022-09-18T21:44:28.465Z,98.40
2022-09-18T21:47:01.927Z,98.30
2022-09-18T21:49:29.676Z,98.40
2022-09-18T21:52:00.703Z,98.40
2022-09-18T21:54:28.394Z,98.30
2022-09-18T21:56:56.656Z,98.40
2022-09-18T21:59:26.907Z,98.30
2022-09-18T22:01:54.981Z,98.30
2022-09-18T22:04:27.107Z,98.30
2022-09-18T22:06:56.277Z,98.30
2022-09-18T22:09:29.159Z,98.30
2022-09-18T22:11:57.531Z,98.30
2022-09-18T22:14:29.447Z,98.40
2022-09-18T22:16:56.843Z,98.40
2022-09-18T22:19:23.885Z,98.30
2022-09-18T22:21:51.888Z,98.40
2022-09-18T22:24:21.596Z,98.40
2022-09-18T22:26:51.721Z,98.40
2022-09-18T22:29:44.497Z,98.40
2022-09-18T22:32:11.448Z,98.40
2022-09-18T22:34:38.405Z,98.40
2022-09-18T22:37:05.481Z,98.40
2022-09-18T22:39:32.458Z,98.40
2022-09-18T22:41:59.747Z,98.40
2022-09-18T22:44:26.698Z,98.50
2022-09-18T22:46:54.138Z,98.40
2022-09-18T22:49:22.844Z,98.40
2022-09-18T22:51:50.740Z,98.40
2022-09-18T22:54:23.546Z,98.50
2022-09-18T22:56:52.211Z,98.60
2022-09-18T22:59:19.830Z,98.50
2022-09-18T23:02:16.199Z,98.40
2022-09-18T23:04:43.585Z,98.50
2022-09-18T23:07:10.565Z,98.60
2022-09-18T23:09:37.541Z,98.50
2022-09-18T23:12:04.758Z,98.60
2022-09-18T23:14:31.834Z,98.60
2022-09-18T23:16:59.939Z,98.50
2022-09-18T23:19:32.732Z,98.50
2022-09-18T23:21:59.859Z,98.50
2022-09-18T23:24:27.503Z,98.50
2022-09-18T23:26:57.523Z,98.50
2022-09-18T23:29:25.835Z,98.50
2022-09-18T23:31:55.194Z,98.40
2022-09-18T23:34:25.419Z,98.50
2022-09-18T23:36:54.245Z,98.40
2022-09-18T23:39:28.847Z,98.50
2022-09-18T23:41:57.206Z,98.50
2022-09-18T23:44:24.773Z,98.80
2022-09-18T23:46:52.067Z,98.50
2022-09-18T23:49:23.646Z,98.50
2022-09-18T23:51:53.156Z,98.50
2022-09-18T23:54:22.961Z,98.50
2022-09-18T23:56:50.065Z,98.70
2022-09-18T23:59:22.466Z,98.50
